Flight Track Log - Related Links

Times and Time Zones

All times are in EDT time to prevent confusion due to time zone crossing. See the FLG4006 flight status page for this flight to view local times or setup timezone preferences in your user account.

Time Position Orientation Groundspeed Altitude Reporting Facility
EDT Latitude Longitude Course Direction KTS MPH feet Rate Location/Type
Sun 07:42:40 PM 42.2053 -83.3722 210° Southwest 147 169 1,400  Level Cleveland Center
Sun 07:43:59 PM 42.1461 -83.4117 206° Southwest 209 241 4,000 2,146 Climbing Cleveland Center
Sun 07:44:57 PM 42.0889 -83.4483 205° Southwest 229 264 6,300 2,746 Climbing Cleveland Center
Sun 07:45:57 PM 42.0292 -83.4989 212° Southwest 260 299 9,400 2,500 Climbing Cleveland Center
Sun 07:46:00 PM 41.8838 -83.6162 217° Southwest  Level FlightAware Approximate
Sun 07:46:57 PM 41.9611 -83.5572 213° Southwest 278 320 11,300  Level Cleveland Center
Sun 07:47:00 PM 41.8036 -83.6825 210° Southwest  Level FlightAware Approximate
Sun 07:47:57 PM 41.8822 -83.6233 212° Southwest 309 356 12,300  Level Cleveland Center
Sun 07:48:00 PM 41.7219 -83.7459 210° Southwest  Level FlightAware Approximate
Sun 07:48:57 PM 41.7947 -83.6972 212° Southwest 348 400 13,400  Level Cleveland Center
Sun 07:49:57 PM 41.7050 -83.7678 210° Southwest 373 429 14,700 1,300 Climbing Cleveland Center
Sun 07:50:57 PM 41.6133 -83.8439 212° Southwest 387 445 16,000 1,300 Climbing Cleveland Center
Sun 07:51:57 PM 41.5236 -83.9142 210° Southwest 393 452 17,300 1,300 Climbing Cleveland Center
Sun 07:52:57 PM 41.4297 -83.9897 211° Southwest 393 452 18,600 1,200 Climbing Cleveland Center
Sun 07:53:57 PM 41.3550 -84.0467 210° Southwest 393 452 19,700 449 Climbing Cleveland Center
Sun 07:56:04 PM 41.1306 -84.2328 212° Southwest 417 480 20,000 95 Climbing Indianapolis Center
Sun 07:57:06 PM 41.0306 -84.3197 213° Southwest 425 489 20,000  Level Indianapolis Center
Sun 07:58:07 PM 40.9283 -84.4053 212° Southwest 430 495 20,000  Level Indianapolis Center
Sun 07:59:08 PM 40.8283 -84.4925 213° Southwest 429 494 20,000  Level Indianapolis Center
Sun 08:00:10 PM 40.7269 -84.5800 213° Southwest 431 496 20,000 -98 Level Indianapolis Center
Sun 08:01:11 PM 40.6200 -84.6589 209° Southwest 438 504 19,800 -976 Descending Indianapolis Center
Sun 08:02:13 PM 40.5033 -84.7028 196° South 435 501 18,000 -1,659 Descending Indianapolis Center
Sun 08:03:14 PM 40.3903 -84.7439 195° South 421 484 16,400 -1,714 Descending Indianapolis Center
Sun 08:03:44 PM 40.3206 -84.7692 195° South 412 474 15,400 -1,452 Descending Indianapolis Center
Sun 08:04:16 PM 40.2814 -84.7839 196° South 407 468 14,900 -1,433 Descending Indianapolis Center
Sun 08:04:51 PM 40.2064 -84.8108 195° South 396 456 13,800 -1,685 Descending Indianapolis Center
Sun 08:05:45 PM 40.1078 -84.8472 196° South 398 458 12,400 -1,348 Descending Indianapolis Center
Sun 08:06:20 PM 40.0656 -84.8631 196° South 401 461 11,800 -1,433 Descending Indianapolis Center
Sun 08:06:52 PM 39.9978 -84.8894 197° South 389 448 10,800 -1,333 Descending Indianapolis Center
Sun 08:07:41 PM 39.9061 -84.8803 176° South 395 455 10,000 -539 Descending Indianapolis Center
Sun 08:08:21 PM 39.8350 -84.8614 168° South 394 453 10,000  Level Indianapolis Center
Sun 08:09:23 PM 39.7278 -84.8636 181° South 393 452 10,000  Level Indianapolis Center
Sun 08:10:25 PM 39.6458 -84.9347 214° Southwest 377 434 10,000  Level Indianapolis Center
Sun 08:11:26 PM 39.5597 -85.0089 214° Southwest 373 429 10,000 -98 Level Indianapolis Center
Sun 08:12:27 PM 39.4744 -85.0439 198° South 324 373 9,800 -829 Descending Indianapolis Center
Sun 08:13:29 PM 39.4067 -84.9836 145° Southeast 306 352 8,300 -1,610 Descending Indianapolis Center
Sun 08:14:30 PM 39.3336 -84.8986 138° Southeast 297 342 6,500 -1,317 Descending Indianapolis Center
Sun 08:15:32 PM 39.2803 -84.8344 137° Southeast 293 337 5,600 -878 Descending Indianapolis Center
Sun 08:16:33 PM 39.2253 -84.7711 138° Southeast 273 314 4,700 -976 Descending Indianapolis Center
Sun 08:17:35 PM 39.1786 -84.7122 136° Southeast 219 252 3,600 -780 Descending Indianapolis Center
Sun 08:18:36 PM 39.1456 -84.6703 135° Southeast 210 242 3,100 -1,000 Descending Indianapolis Center
Sun 08:19:53 PM 39.0833 -84.6667 177° South 129 148 1,300 -1,403 Descending Cincinnati TRACON

Login

Don't have an account? Register now (free) for customized features, flight alerts, and more!